Terminal Aerodrome Forecast
Issued by NWS San Angelo, TX

Home | Current Version | Previous Version | Text Only | Print | Product List | Glossary On
Versions: 1 2 3 4 5 6 7 8 9 10 11 12 13 14 15 16 17 18 19
000
FTUS44 KSJT 241300 AAA
TAFABI
TAF AMD
KABI 241356Z 2414/2512 25013KT P6SM SKC
     FM241500 34015G22KT 4SM BLDU FEW250
     FM241800 36012G22KT P6SM SKC
     FM250000 36007KT P6SM SKC=

USA.gov is the U.S. government's official web portal to all federal, state and local government web resources and services.